Impacts TAF Board
For situational awareness. Not to be used for flight planning purposes.
IDs:

KMIA - Miami Intl, FL, US

Issued at 0529 UTC 03 Aug 2021
Updated at 0834 UTC 03 Aug 2021
Potential Impact None Slight Moderate High
Time0753Z 03/09Z 03/10Z 03/11Z 03/12Z 03/13Z 03/14Z 03/15Z 03/16Z 03/17Z 03/18Z 03/19Z 03/20Z 03/21Z>>
Type OBS PRVL PRVL PRVL PRVL PRVL PRVL PRVL
  [PRB30]  
PRVL
  [PRB30]  
PRVL
  [PRB30]  
PRVL PRVL PRVL PRVL
VIS 10 >6 >6 >6 >6 >6 >6 >6
  [3]  
>6
  [3]  
>6
  [3]  
>6 >6 >6 >6
CIG 200 120 120 120 50 50 50 50
  [50]  
50
  [50]  
50
  [50]  
50 50 50 50
Cover OVC BKN BKN BKN BKN BKN BKN BKN
  [BKN]  
BKN
  [BKN]  
BKN
  [BKN]  
BKN BKN BKN BKN
FltCat VFR VFR VFR VFR VFR VFR VFR VFR
  [MVFR]  
VFR
  [MVFR]  
VFR
  [MVFR]  
VFR VFR VFR VFR
WX -- VCSH VCSH VCSH VCSH VCSH VCSH VCSH
  [TSRA]  
VCSH
  [TSRA]  
VCSH
  [TSRA]  
VCTS VCTS VCTS VCTS
WDir 180 VRB VRB VRB 200 200 200 200
[200]
200
[200]
200
[200]
160 160 160 160
WSpd 3 5 5 5 5 5 5 5
  [5]  
5
  [5]  
5
  [5]  
10 10 10 10
WGst -- -- -- -- -- -- -- --
  [--]  
--
  [--]  
--
  [--]  
-- -- -- --
Raw TAF
KMIA 030529Z 0306/0412 VRB05KT P6SM VCSH FEW025 SCT050 BKN120
  FM031200 20005KT P6SM VCSH SCT025 BKN050
  PROB30 0315/0318 3SM TSRA SCT025CB BKN050
  FM031800 16010KT P6SM VCTS SCT025CB BKN050
  FM040000 VRB05KT P6SM VCSH FEW025 SCT080 BKN120


Raw METAR
KMIA 030753Z 18003KT 10SM FEW025 SCT130 BKN200 OVC250 28/25 A3000 RMK AO2 SLP159 T02780250 $
KMIA 030653Z 20005KT 10SM FEW025 BKN190 OVC250 28/25 A3001 RMK AO2 SLP161 T02830250 $
KMIA 030553Z 18004KT 10SM FEW025 BKN190 OVC250 28/25 A3001 RMK AO2 SLP163 T02830250 10300 20278 58022 $

METAR Board
Radar Display
Forecast Discussion
For situational awareness. Not to be used for flight planning purposes.